sensor_id;sensor_type;location;lat;lon;timestamp;P1;durP1;ratioP1;P2;durP2;ratioP2
10126;SDS011;13080;42.608;23.362;2024-01-06T00:00:30;7.80;;;3.25;;
10126;SDS011;13080;42.608;23.362;2024-01-06T00:02:58;4.45;;;2.28;;
10126;SDS011;13080;42.608;23.362;2024-01-06T00:05:24;6.80;;;2.72;;
10126;SDS011;13080;42.608;23.362;2024-01-06T00:07:51;7.88;;;4.30;;
10126;SDS011;13080;42.608;23.362;2024-01-06T00:10:17;7.07;;;3.97;;
10126;SDS011;13080;42.608;23.362;2024-01-06T00:12:44;8.23;;;3.53;;
10126;SDS011;13080;42.608;23.362;2024-01-06T00:15:11;7.07;;;2.80;;
10126;SDS011;13080;42.608;23.362;2024-01-06T00:17:37;5.13;;;2.28;;
10126;SDS011;13080;42.608;23.362;2024-01-06T00:20:06;4.95;;;1.88;;
10126;SDS011;13080;42.608;23.362;2024-01-06T00:22:33;3.55;;;1.60;;
10126;SDS011;13080;42.608;23.362;2024-01-06T00:25:00;1.92;;;1.35;;
10126;SDS011;13080;42.608;23.362;2024-01-06T00:27:27;2.92;;;2.35;;
10126;SDS011;13080;42.608;23.362;2024-01-06T00:29:53;5.00;;;3.58;;
10126;SDS011;13080;42.608;23.362;2024-01-06T00:32:20;3.85;;;1.98;;
10126;SDS011;13080;42.608;23.362;2024-01-06T00:34:46;4.15;;;1.60;;
10126;SDS011;13080;42.608;23.362;2024-01-06T00:37:14;1.38;;;1.23;;
10126;SDS011;13080;42.608;23.362;2024-01-06T00:39:41;3.13;;;1.38;;
10126;SDS011;13080;42.608;23.362;2024-01-06T00:42:08;2.53;;;1.70;;
10126;SDS011;13080;42.608;23.362;2024-01-06T00:44:35;3.05;;;1.38;;
10126;SDS011;13080;42.608;23.362;2024-01-06T00:47:02;3.45;;;2.97;;
10126;SDS011;13080;42.608;23.362;2024-01-06T00:49:29;3.35;;;2.85;;
10126;SDS011;13080;42.608;23.362;2024-01-06T00:51:55;3.00;;;1.77;;
10126;SDS011;13080;42.608;23.362;2024-01-06T00:54:23;2.45;;;2.05;;
10126;SDS011;13080;42.608;23.362;2024-01-06T00:56:50;2.90;;;1.60;;
10126;SDS011;13080;42.608;23.362;2024-01-06T00:59:16;2.63;;;2.38;;
10126;SDS011;13080;42.608;23.362;2024-01-06T01:01:43;6.93;;;1.88;;
10126;SDS011;13080;42.608;23.362;2024-01-06T01:04:10;2.38;;;1.58;;
10126;SDS011;13080;42.608;23.362;2024-01-06T01:06:37;2.72;;;2.53;;
10126;SDS011;13080;42.608;23.362;2024-01-06T01:09:04;3.90;;;1.90;;
10126;SDS011;13080;42.608;23.362;2024-01-06T01:11:32;2.80;;;1.83;;
10126;SDS011;13080;42.608;23.362;2024-01-06T01:13:58;5.53;;;3.60;;
10126;SDS011;13080;42.608;23.362;2024-01-06T01:16:25;4.78;;;2.13;;
10126;SDS011;13080;42.608;23.362;2024-01-06T01:18:51;3.55;;;2.15;;
10126;SDS011;13080;42.608;23.362;2024-01-06T01:21:18;6.28;;;2.55;;
10126;SDS011;13080;42.608;23.362;2024-01-06T01:23:45;5.07;;;2.33;;
10126;SDS011;13080;42.608;23.362;2024-01-06T01:26:12;4.78;;;2.60;;
10126;SDS011;13080;42.608;23.362;2024-01-06T01:28:40;3.13;;;2.40;;
10126;SDS011;13080;42.608;23.362;2024-01-06T01:31:06;3.40;;;1.90;;
10126;SDS011;13080;42.608;23.362;2024-01-06T01:33:33;4.50;;;1.75;;
10126;SDS011;13080;42.608;23.362;2024-01-06T01:35:59;4.00;;;2.13;;
10126;SDS011;13080;42.608;23.362;2024-01-06T01:38:26;5.65;;;1.83;;
10126;SDS011;13080;42.608;23.362;2024-01-06T01:40:52;3.17;;;1.80;;
10126;SDS011;13080;42.608;23.362;2024-01-06T01:43:19;3.67;;;1.90;;
10126;SDS011;13080;42.608;23.362;2024-01-06T01:45:48;5.30;;;2.50;;
10126;SDS011;13080;42.608;23.362;2024-01-06T01:48:16;3.63;;;2.03;;
10126;SDS011;13080;42.608;23.362;2024-01-06T01:50:43;5.38;;;1.50;;
10126;SDS011;13080;42.608;23.362;2024-01-06T01:53:10;3.47;;;2.13;;
10126;SDS011;13080;42.608;23.362;2024-01-06T01:55:37;3.55;;;2.05;;
10126;SDS011;13080;42.608;23.362;2024-01-06T01:58:03;3.67;;;1.67;;
10126;SDS011;13080;42.608;23.362;2024-01-06T02:00:31;4.70;;;2.05;;
10126;SDS011;13080;42.608;23.362;2024-01-06T02:02:59;2.35;;;1.80;;
10126;SDS011;13080;42.608;23.362;2024-01-06T02:05:26;3.97;;;1.65;;
10126;SDS011;13080;42.608;23.362;2024-01-06T02:07:52;2.78;;;1.90;;
10126;SDS011;13080;42.608;23.362;2024-01-06T02:10:19;4.00;;;1.80;;
10126;SDS011;13080;42.608;23.362;2024-01-06T02:12:45;2.97;;;1.85;;
10126;SDS011;13080;42.608;23.362;2024-01-06T02:15:12;4.55;;;2.45;;
10126;SDS011;13080;42.608;23.362;2024-01-06T02:17:39;2.78;;;1.52;;
10126;SDS011;13080;42.608;23.362;2024-01-06T02:20:08;3.03;;;1.52;;
10126;SDS011;13080;42.608;23.362;2024-01-06T02:22:36;3.65;;;2.13;;
10126;SDS011;13080;42.608;23.362;2024-01-06T02:25:04;5.95;;;2.80;;
10126;SDS011;13080;42.608;23.362;2024-01-06T02:27:32;4.30;;;2.33;;
10126;SDS011;13080;42.608;23.362;2024-01-06T02:29:59;7.03;;;3.03;;
10126;SDS011;13080;42.608;23.362;2024-01-06T02:32:26;3.85;;;2.63;;
10126;SDS011;13080;42.608;23.362;2024-01-06T02:34:52;5.25;;;2.30;;
10126;SDS011;13080;42.608;23.362;2024-01-06T02:37:19;4.28;;;2.65;;
10126;SDS011;13080;42.608;23.362;2024-01-06T02:39:47;4.53;;;2.83;;
10126;SDS011;13080;42.608;23.362;2024-01-06T02:42:14;7.57;;;3.42;;
10126;SDS011;13080;42.608;23.362;2024-01-06T02:44:40;3.92;;;2.35;;
10126;SDS011;13080;42.608;23.362;2024-01-06T02:47:07;5.68;;;2.67;;
10126;SDS011;13080;42.608;23.362;2024-01-06T02:49:33;3.75;;;2.38;;
10126;SDS011;13080;42.608;23.362;2024-01-06T02:52:00;4.07;;;2.55;;
10126;SDS011;13080;42.608;23.362;2024-01-06T02:54:26;4.07;;;1.92;;
10126;SDS011;13080;42.608;23.362;2024-01-06T02:56:54;4.95;;;1.77;;
10126;SDS011;13080;42.608;23.362;2024-01-06T02:59:21;4.55;;;1.92;;
10126;SDS011;13080;42.608;23.362;2024-01-06T03:01:48;3.15;;;2.42;;
10126;SDS011;13080;42.608;23.362;2024-01-06T03:04:14;5.78;;;3.53;;
10126;SDS011;13080;42.608;23.362;2024-01-06T03:06:41;9.80;;;8.57;;
10126;SDS011;13080;42.608;23.362;2024-01-06T03:09:07;8.95;;;7.55;;
10126;SDS011;13080;42.608;23.362;2024-01-06T03:11:34;7.32;;;5.65;;
10126;SDS011;13080;42.608;23.362;2024-01-06T03:14:02;6.45;;;4.80;;
10126;SDS011;13080;42.608;23.362;2024-01-06T03:16:29;5.00;;;3.38;;
10126;SDS011;13080;42.608;23.362;2024-01-06T03:18:55;4.32;;;2.83;;
10126;SDS011;13080;42.608;23.362;2024-01-06T03:21:22;6.85;;;2.50;;
10126;SDS011;13080;42.608;23.362;2024-01-06T03:23:48;3.13;;;2.13;;
10126;SDS011;13080;42.608;23.362;2024-01-06T03:26:16;11.10;;;5.70;;
10126;SDS011;13080;42.608;23.362;2024-01-06T03:28:43;5.55;;;3.83;;
10126;SDS011;13080;42.608;23.362;2024-01-06T03:31:11;3.92;;;2.40;;
10126;SDS011;13080;42.608;23.362;2024-01-06T03:33:38;5.28;;;3.20;;
10126;SDS011;13080;42.608;23.362;2024-01-06T03:36:05;3.53;;;2.83;;
10126;SDS011;13080;42.608;23.362;2024-01-06T03:38:32;4.03;;;2.75;;
10126;SDS011;13080;42.608;23.362;2024-01-06T03:43:24;3.78;;;2.47;;
10126;SDS011;13080;42.608;23.362;2024-01-06T03:45:50;5.30;;;2.08;;
10126;SDS011;13080;42.608;23.362;2024-01-06T03:48:18;4.00;;;2.13;;
10126;SDS011;13080;42.608;23.362;2024-01-06T03:50:45;4.40;;;2.53;;
10126;SDS011;13080;42.608;23.362;2024-01-06T03:53:11;4.18;;;2.08;;
10126;SDS011;13080;42.608;23.362;2024-01-06T03:55:38;4.47;;;2.28;;
10126;SDS011;13080;42.608;23.362;2024-01-06T03:58:05;5.32;;;2.80;;
10126;SDS011;13080;42.608;23.362;2024-01-06T04:00:31;11.00;;;5.70;;
10126;SDS011;13080;42.608;23.362;2024-01-06T04:02:58;25.88;;;11.25;;
10126;SDS011;13080;42.608;23.362;2024-01-06T04:05:26;19.48;;;9.70;;
10126;SDS011;13080;42.608;23.362;2024-01-06T04:07:53;7.13;;;4.13;;
10126;SDS011;13080;42.608;23.362;2024-01-06T04:10:19;5.75;;;3.50;;
10126;SDS011;13080;42.608;23.362;2024-01-06T04:12:46;4.47;;;2.83;;
10126;SDS011;13080;42.608;23.362;2024-01-06T04:15:12;5.80;;;3.03;;
10126;SDS011;13080;42.608;23.362;2024-01-06T04:17:39;3.53;;;3.08;;
10126;SDS011;13080;42.608;23.362;2024-01-06T04:20:06;6.75;;;3.83;;
10126;SDS011;13080;42.608;23.362;2024-01-06T04:22:34;4.50;;;3.63;;
10126;SDS011;13080;42.608;23.362;2024-01-06T04:25:01;2.92;;;2.35;;
10126;SDS011;13080;42.608;23.362;2024-01-06T04:27:27;6.22;;;3.15;;
10126;SDS011;13080;42.608;23.362;2024-01-06T04:29:54;3.83;;;1.90;;
10126;SDS011;13080;42.608;23.362;2024-01-06T04:32:20;6.68;;;3.38;;
10126;SDS011;13080;42.608;23.362;2024-01-06T04:34:47;7.13;;;3.50;;
10126;SDS011;13080;42.608;23.362;2024-01-06T04:37:13;3.55;;;2.42;;
10126;SDS011;13080;42.608;23.362;2024-01-06T04:39:42;5.30;;;2.28;;
10126;SDS011;13080;42.608;23.362;2024-01-06T04:42:09;4.05;;;2.20;;
10126;SDS011;13080;42.608;23.362;2024-01-06T04:44:35;4.32;;;2.13;;
10126;SDS011;13080;42.608;23.362;2024-01-06T04:47:02;5.55;;;4.22;;
10126;SDS011;13080;42.608;23.362;2024-01-06T04:49:29;7.32;;;3.03;;
10126;SDS011;13080;42.608;23.362;2024-01-06T04:51:55;3.88;;;2.33;;
10126;SDS011;13080;42.608;23.362;2024-01-06T04:54:22;4.10;;;2.95;;
10126;SDS011;13080;42.608;23.362;2024-01-06T04:56:50;4.35;;;2.80;;
10126;SDS011;13080;42.608;23.362;2024-01-06T04:59:17;3.45;;;3.00;;
10126;SDS011;13080;42.608;23.362;2024-01-06T05:01:43;4.53;;;2.85;;
10126;SDS011;13080;42.608;23.362;2024-01-06T05:04:10;7.00;;;2.83;;
10126;SDS011;13080;42.608;23.362;2024-01-06T05:06:36;4.50;;;2.38;;
10126;SDS011;13080;42.608;23.362;2024-01-06T05:09:03;10.70;;;3.90;;
10126;SDS011;13080;42.608;23.362;2024-01-06T05:11:30;6.85;;;3.00;;
10126;SDS011;13080;42.608;23.362;2024-01-06T05:13:58;5.47;;;3.15;;
10126;SDS011;13080;42.608;23.362;2024-01-06T05:16:24;5.30;;;2.60;;
10126;SDS011;13080;42.608;23.362;2024-01-06T05:18:52;4.00;;;2.75;;
10126;SDS011;13080;42.608;23.362;2024-01-06T05:21:19;5.35;;;2.85;;
10126;SDS011;13080;42.608;23.362;2024-01-06T05:23:46;3.28;;;2.50;;
10126;SDS011;13080;42.608;23.362;2024-01-06T05:26:12;5.03;;;2.55;;
10126;SDS011;13080;42.608;23.362;2024-01-06T05:28:39;5.22;;;2.80;;
10126;SDS011;13080;42.608;23.362;2024-01-06T05:31:07;5.70;;;3.63;;
10126;SDS011;13080;42.608;23.362;2024-01-06T05:33:33;4.80;;;2.53;;
10126;SDS011;13080;42.608;23.362;2024-01-06T05:36:00;5.40;;;4.03;;
10126;SDS011;13080;42.608;23.362;2024-01-06T05:38:26;9.25;;;3.33;;
10126;SDS011;13080;42.608;23.362;2024-01-06T05:40:53;7.00;;;2.70;;
10126;SDS011;13080;42.608;23.362;2024-01-06T05:43:20;7.25;;;6.55;;
10126;SDS011;13080;42.608;23.362;2024-01-06T05:45:46;6.85;;;2.42;;
10126;SDS011;13080;42.608;23.362;2024-01-06T05:48:14;2.72;;;2.15;;
10126;SDS011;13080;42.608;23.362;2024-01-06T05:50:41;3.78;;;2.30;;
10126;SDS011;13080;42.608;23.362;2024-01-06T05:53:07;4.03;;;2.08;;
10126;SDS011;13080;42.608;23.362;2024-01-06T05:55:35;5.10;;;2.35;;
10126;SDS011;13080;42.608;23.362;2024-01-06T05:58:02;5.75;;;2.17;;
10126;SDS011;13080;42.608;23.362;2024-01-06T06:00:29;5.13;;;2.13;;
10126;SDS011;13080;42.608;23.362;2024-01-06T06:02:56;3.03;;;1.80;;
10126;SDS011;13080;42.608;23.362;2024-01-06T06:05:24;3.22;;;2.03;;
10126;SDS011;13080;42.608;23.362;2024-01-06T06:07:51;5.45;;;2.05;;
10126;SDS011;13080;42.608;23.362;2024-01-06T06:10:18;5.03;;;2.30;;
10126;SDS011;13080;42.608;23.362;2024-01-06T06:12:44;5.15;;;2.30;;
10126;SDS011;13080;42.608;23.362;2024-01-06T06:15:11;3.85;;;3.08;;
10126;SDS011;13080;42.608;23.362;2024-01-06T06:17:38;4.43;;;2.55;;
10126;SDS011;13080;42.608;23.362;2024-01-06T06:20:05;3.80;;;2.45;;
10126;SDS011;13080;42.608;23.362;2024-01-06T06:22:34;6.13;;;3.10;;
10126;SDS011;13080;42.608;23.362;2024-01-06T06:25:00;4.97;;;3.65;;
10126;SDS011;13080;42.608;23.362;2024-01-06T06:27:27;5.43;;;3.20;;
10126;SDS011;13080;42.608;23.362;2024-01-06T06:29:54;8.90;;;5.95;;
10126;SDS011;13080;42.608;23.362;2024-01-06T06:32:21;11.40;;;5.20;;
10126;SDS011;13080;42.608;23.362;2024-01-06T06:34:48;7.35;;;4.05;;
10126;SDS011;13080;42.608;23.362;2024-01-06T06:37:14;8.30;;;3.78;;
10126;SDS011;13080;42.608;23.362;2024-01-06T06:39:42;8.00;;;3.35;;
10126;SDS011;13080;42.608;23.362;2024-01-06T06:42:10;5.43;;;3.00;;
10126;SDS011;13080;42.608;23.362;2024-01-06T06:44:36;3.63;;;2.70;;
10126;SDS011;13080;42.608;23.362;2024-01-06T06:47:03;4.80;;;2.70;;
10126;SDS011;13080;42.608;23.362;2024-01-06T06:49:29;6.72;;;3.20;;
10126;SDS011;13080;42.608;23.362;2024-01-06T06:51:56;6.93;;;3.35;;
10126;SDS011;13080;42.608;23.362;2024-01-06T06:54:22;5.78;;;3.05;;
10126;SDS011;13080;42.608;23.362;2024-01-06T06:56:50;2.83;;;2.33;;
10126;SDS011;13080;42.608;23.362;2024-01-06T06:59:17;5.10;;;1.80;;
10126;SDS011;13080;42.608;23.362;2024-01-06T07:01:44;4.60;;;1.92;;
10126;SDS011;13080;42.608;23.362;2024-01-06T07:04:10;3.53;;;1.90;;
10126;SDS011;13080;42.608;23.362;2024-01-06T07:06:37;3.33;;;2.38;;
10126;SDS011;13080;42.608;23.362;2024-01-06T07:09:03;4.93;;;3.13;;
10126;SDS011;13080;42.608;23.362;2024-01-06T07:11:31;4.63;;;2.58;;
10126;SDS011;13080;42.608;23.362;2024-01-06T07:13:59;3.55;;;2.10;;
10126;SDS011;13080;42.608;23.362;2024-01-06T07:16:25;3.47;;;1.75;;
10126;SDS011;13080;42.608;23.362;2024-01-06T07:18:52;4.10;;;2.25;;
10126;SDS011;13080;42.608;23.362;2024-01-06T07:21:18;3.70;;;1.90;;
10126;SDS011;13080;42.608;23.362;2024-01-06T07:23:45;3.63;;;1.70;;
10126;SDS011;13080;42.608;23.362;2024-01-06T07:26:12;4.03;;;1.90;;
10126;SDS011;13080;42.608;23.362;2024-01-06T07:28:38;4.18;;;2.00;;
10126;SDS011;13080;42.608;23.362;2024-01-06T07:31:06;2.30;;;2.05;;
10126;SDS011;13080;42.608;23.362;2024-01-06T07:33:33;3.42;;;2.72;;
10126;SDS011;13080;42.608;23.362;2024-01-06T07:35:59;5.25;;;2.50;;
10126;SDS011;13080;42.608;23.362;2024-01-06T07:38:26;6.50;;;2.55;;
10126;SDS011;13080;42.608;23.362;2024-01-06T07:40:53;3.45;;;1.83;;
10126;SDS011;13080;42.608;23.362;2024-01-06T07:43:19;2.97;;;2.20;;
10126;SDS011;13080;42.608;23.362;2024-01-06T07:45:46;3.92;;;2.28;;
10126;SDS011;13080;42.608;23.362;2024-01-06T07:48:14;3.03;;;1.60;;
10126;SDS011;13080;42.608;23.362;2024-01-06T07:50:41;4.90;;;2.25;;
10126;SDS011;13080;42.608;23.362;2024-01-06T07:53:08;3.63;;;2.00;;
10126;SDS011;13080;42.608;23.362;2024-01-06T07:55:35;3.78;;;1.90;;
10126;SDS011;13080;42.608;23.362;2024-01-06T07:58:01;2.95;;;1.92;;
10126;SDS011;13080;42.608;23.362;2024-01-06T08:00:28;2.83;;;2.10;;
10126;SDS011;13080;42.608;23.362;2024-01-06T08:02:55;8.35;;;2.65;;
10126;SDS011;13080;42.608;23.362;2024-01-06T08:05:23;5.35;;;2.10;;
10126;SDS011;13080;42.608;23.362;2024-01-06T08:07:50;10.68;;;3.72;;
10126;SDS011;13080;42.608;23.362;2024-01-06T08:10:17;7.38;;;3.70;;
10126;SDS011;13080;42.608;23.362;2024-01-06T08:12:44;7.85;;;3.67;;
10126;SDS011;13080;42.608;23.362;2024-01-06T08:15:10;8.77;;;4.55;;
10126;SDS011;13080;42.608;23.362;2024-01-06T08:17:37;11.35;;;4.30;;
10126;SDS011;13080;42.608;23.362;2024-01-06T08:20:06;10.25;;;5.25;;
10126;SDS011;13080;42.608;23.362;2024-01-06T08:22:34;11.55;;;5.72;;
10126;SDS011;13080;42.608;23.362;2024-01-06T08:25:01;11.52;;;5.32;;
10126;SDS011;13080;42.608;23.362;2024-01-06T08:27:27;10.43;;;5.80;;
10126;SDS011;13080;42.608;23.362;2024-01-06T08:29:54;10.02;;;5.20;;
10126;SDS011;13080;42.608;23.362;2024-01-06T08:32:23;11.80;;;5.18;;
10126;SDS011;13080;42.608;23.362;2024-01-06T08:34:49;13.95;;;5.05;;
10126;SDS011;13080;42.608;23.362;2024-01-06T08:37:16;11.98;;;5.70;;
10126;SDS011;13080;42.608;23.362;2024-01-06T08:39:44;10.55;;;4.53;;
10126;SDS011;13080;42.608;23.362;2024-01-06T08:42:10;7.82;;;3.67;;
10126;SDS011;13080;42.608;23.362;2024-01-06T08:44:37;8.75;;;3.08;;
10126;SDS011;13080;42.608;23.362;2024-01-06T08:47:04;6.50;;;3.10;;
10126;SDS011;13080;42.608;23.362;2024-01-06T08:49:31;6.50;;;3.35;;
10126;SDS011;13080;42.608;23.362;2024-01-06T08:51:58;5.70;;;3.63;;
10126;SDS011;13080;42.608;23.362;2024-01-06T08:54:24;4.60;;;3.28;;
10126;SDS011;13080;42.608;23.362;2024-01-06T08:56:52;5.45;;;2.55;;
10126;SDS011;13080;42.608;23.362;2024-01-06T08:59:19;8.48;;;3.92;;
10126;SDS011;13080;42.608;23.362;2024-01-06T09:01:46;6.55;;;3.28;;
10126;SDS011;13080;42.608;23.362;2024-01-06T09:04:12;4.22;;;2.35;;
10126;SDS011;13080;42.608;23.362;2024-01-06T09:06:40;4.32;;;2.70;;
10126;SDS011;13080;42.608;23.362;2024-01-06T09:09:06;5.03;;;2.65;;
10126;SDS011;13080;42.608;23.362;2024-01-06T09:11:34;3.20;;;1.60;;
10126;SDS011;13080;42.608;23.362;2024-01-06T09:14:03;2.83;;;1.70;;
10126;SDS011;13080;42.608;23.362;2024-01-06T09:16:29;2.13;;;1.42;;
10126;SDS011;13080;42.608;23.362;2024-01-06T09:18:56;2.58;;;1.85;;
10126;SDS011;13080;42.608;23.362;2024-01-06T09:21:22;3.30;;;1.73;;
10126;SDS011;13080;42.608;23.362;2024-01-06T09:23:49;5.55;;;1.92;;
10126;SDS011;13080;42.608;23.362;2024-01-06T09:26:15;2.97;;;1.58;;
10126;SDS011;13080;42.608;23.362;2024-01-06T09:28:42;3.45;;;1.80;;
10126;SDS011;13080;42.608;23.362;2024-01-06T09:31:11;3.25;;;1.88;;
10126;SDS011;13080;42.608;23.362;2024-01-06T09:33:38;4.35;;;1.98;;
10126;SDS011;13080;42.608;23.362;2024-01-06T09:36:06;3.88;;;1.88;;
10126;SDS011;13080;42.608;23.362;2024-01-06T09:38:35;3.80;;;1.95;;
10126;SDS011;13080;42.608;23.362;2024-01-06T09:41:01;4.72;;;2.35;;
10126;SDS011;13080;42.608;23.362;2024-01-06T09:43:28;5.43;;;2.42;;
10126;SDS011;13080;42.608;23.362;2024-01-06T09:45:56;5.97;;;2.50;;
10126;SDS011;13080;42.608;23.362;2024-01-06T09:48:28;6.63;;;2.45;;
10126;SDS011;13080;42.608;23.362;2024-01-06T09:50:55;5.85;;;3.65;;
10126;SDS011;13080;42.608;23.362;2024-01-06T09:53:22;7.60;;;3.60;;
10126;SDS011;13080;42.608;23.362;2024-01-06T09:55:49;8.57;;;3.90;;
10126;SDS011;13080;42.608;23.362;2024-01-06T09:58:17;7.53;;;3.97;;
10126;SDS011;13080;42.608;23.362;2024-01-06T10:00:44;7.55;;;3.53;;
10126;SDS011;13080;42.608;23.362;2024-01-06T10:03:11;7.20;;;3.50;;
10126;SDS011;13080;42.608;23.362;2024-01-06T10:05:39;8.93;;;4.57;;
10126;SDS011;13080;42.608;23.362;2024-01-06T10:08:06;7.25;;;4.20;;
10126;SDS011;13080;42.608;23.362;2024-01-06T10:10:33;9.50;;;5.75;;
10126;SDS011;13080;42.608;23.362;2024-01-06T10:12:59;8.07;;;4.60;;
10126;SDS011;13080;42.608;23.362;2024-01-06T10:15:26;7.32;;;3.75;;
10126;SDS011;13080;42.608;23.362;2024-01-06T10:17:53;8.40;;;3.97;;
10126;SDS011;13080;42.608;23.362;2024-01-06T10:20:20;7.82;;;4.10;;
10126;SDS011;13080;42.608;23.362;2024-01-06T10:22:48;7.15;;;3.58;;
10126;SDS011;13080;42.608;23.362;2024-01-06T10:25:15;5.40;;;3.70;;
10126;SDS011;13080;42.608;23.362;2024-01-06T10:27:41;6.57;;;2.90;;
10126;SDS011;13080;42.608;23.362;2024-01-06T10:30:09;5.00;;;2.45;;
10126;SDS011;13080;42.608;23.362;2024-01-06T10:32:36;5.45;;;2.33;;
10126;SDS011;13080;42.608;23.362;2024-01-06T10:35:03;5.70;;;3.08;;
10126;SDS011;13080;42.608;23.362;2024-01-06T10:37:31;16.20;;;4.93;;
10126;SDS011;13080;42.608;23.362;2024-01-06T10:40:09;12.20;;;6.70;;
10126;SDS011;13080;42.608;23.362;2024-01-06T10:45:03;12.15;;;6.88;;
10126;SDS011;13080;42.608;23.362;2024-01-06T10:47:33;15.40;;;8.43;;
10126;SDS011;13080;42.608;23.362;2024-01-06T10:49:59;16.40;;;7.35;;
10126;SDS011;13080;42.608;23.362;2024-01-06T10:52:26;12.82;;;6.88;;
10126;SDS011;13080;42.608;23.362;2024-01-06T10:54:53;17.08;;;7.75;;
10126;SDS011;13080;42.608;23.362;2024-01-06T10:57:21;13.32;;;7.68;;
10126;SDS011;13080;42.608;23.362;2024-01-06T10:59:49;18.10;;;8.32;;
10126;SDS011;13080;42.608;23.362;2024-01-06T11:02:16;17.63;;;10.02;;
10126;SDS011;13080;42.608;23.362;2024-01-06T11:04:42;21.30;;;10.88;;
10126;SDS011;13080;42.608;23.362;2024-01-06T11:07:09;15.13;;;6.38;;
10126;SDS011;13080;42.608;23.362;2024-01-06T11:09:37;13.15;;;6.57;;
10126;SDS011;13080;42.608;23.362;2024-01-06T11:12:05;10.70;;;5.63;;
10126;SDS011;13080;42.608;23.362;2024-01-06T11:14:36;7.93;;;4.57;;
10126;SDS011;13080;42.608;23.362;2024-01-06T11:17:03;8.90;;;5.07;;
10126;SDS011;13080;42.608;23.362;2024-01-06T11:19:43;17.45;;;6.70;;
10126;SDS011;13080;42.608;23.362;2024-01-06T11:22:20;16.48;;;6.80;;
10126;SDS011;13080;42.608;23.362;2024-01-06T11:24:46;11.48;;;5.90;;
10126;SDS011;13080;42.608;23.362;2024-01-06T11:27:16;13.85;;;6.60;;
10126;SDS011;13080;42.608;23.362;2024-01-06T11:29:45;20.77;;;7.70;;
10126;SDS011;13080;42.608;23.362;2024-01-06T11:32:18;13.38;;;6.55;;
10126;SDS011;13080;42.608;23.362;2024-01-06T11:34:48;12.50;;;7.00;;
10126;SDS011;13080;42.608;23.362;2024-01-06T11:37:17;17.58;;;7.65;;
10126;SDS011;13080;42.608;23.362;2024-01-06T11:39:43;14.82;;;7.65;;
10126;SDS011;13080;42.608;23.362;2024-01-06T11:42:10;18.40;;;10.07;;
10126;SDS011;13080;42.608;23.362;2024-01-06T11:44:38;16.02;;;8.73;;
10126;SDS011;13080;42.608;23.362;2024-01-06T11:47:06;20.27;;;9.18;;
10126;SDS011;13080;42.608;23.362;2024-01-06T11:49:34;15.52;;;8.68;;
10126;SDS011;13080;42.608;23.362;2024-01-06T11:52:01;12.70;;;7.18;;
10126;SDS011;13080;42.608;23.362;2024-01-06T11:54:28;16.55;;;8.02;;
10126;SDS011;13080;42.608;23.362;2024-01-06T11:56:55;15.20;;;7.72;;
10126;SDS011;13080;42.608;23.362;2024-01-06T11:59:22;52.90;;;30.98;;
10126;SDS011;13080;42.608;23.362;2024-01-06T12:01:49;23.17;;;11.68;;
10126;SDS011;13080;42.608;23.362;2024-01-06T12:04:17;12.73;;;8.15;;
10126;SDS011;13080;42.608;23.362;2024-01-06T12:06:44;21.58;;;9.38;;
10126;SDS011;13080;42.608;23.362;2024-01-06T12:09:11;18.40;;;8.15;;
10126;SDS011;13080;42.608;23.362;2024-01-06T12:11:40;23.73;;;10.30;;
10126;SDS011;13080;42.608;23.362;2024-01-06T12:14:10;23.73;;;10.48;;
10126;SDS011;13080;42.608;23.362;2024-01-06T12:16:36;15.77;;;8.35;;
10126;SDS011;13080;42.608;23.362;2024-01-06T12:19:03;12.50;;;7.97;;
10126;SDS011;13080;42.608;23.362;2024-01-06T12:21:31;17.20;;;8.70;;
10126;SDS011;13080;42.608;23.362;2024-01-06T12:24:18;13.00;;;7.53;;
10126;SDS011;13080;42.608;23.362;2024-01-06T12:26:46;13.75;;;7.57;;
10126;SDS011;13080;42.608;23.362;2024-01-06T12:29:12;18.38;;;8.98;;
10126;SDS011;13080;42.608;23.362;2024-01-06T12:31:39;19.52;;;10.40;;
10126;SDS011;13080;42.608;23.362;2024-01-06T12:34:06;12.40;;;7.45;;
10126;SDS011;13080;42.608;23.362;2024-01-06T12:36:35;12.98;;;7.20;;
10126;SDS011;13080;42.608;23.362;2024-01-06T12:39:02;12.43;;;7.55;;
10126;SDS011;13080;42.608;23.362;2024-01-06T12:41:29;18.85;;;6.50;;
10126;SDS011;13080;42.608;23.362;2024-01-06T12:43:58;20.13;;;7.90;;
10126;SDS011;13080;42.608;23.362;2024-01-06T12:46:24;15.43;;;6.72;;
10126;SDS011;13080;42.608;23.362;2024-01-06T12:48:51;12.80;;;7.80;;
10126;SDS011;13080;42.608;23.362;2024-01-06T12:51:18;21.08;;;7.93;;
10126;SDS011;13080;42.608;23.362;2024-01-06T12:53:46;11.82;;;5.57;;
10126;SDS011;13080;42.608;23.362;2024-01-06T12:56:12;7.32;;;5.05;;
10126;SDS011;13080;42.608;23.362;2024-01-06T12:58:40;9.65;;;5.70;;
10126;SDS011;13080;42.608;23.362;2024-01-06T13:01:06;16.23;;;6.75;;
10126;SDS011;13080;42.608;23.362;2024-01-06T13:03:33;10.98;;;5.82;;
10126;SDS011;13080;42.608;23.362;2024-01-06T13:05:59;8.05;;;4.85;;
10126;SDS011;13080;42.608;23.362;2024-01-06T13:08:26;9.73;;;5.15;;
10126;SDS011;13080;42.608;23.362;2024-01-06T13:10:55;11.48;;;5.20;;
10126;SDS011;13080;42.608;23.362;2024-01-06T13:13:22;10.20;;;5.97;;
10126;SDS011;13080;42.608;23.362;2024-01-06T13:15:48;13.80;;;6.47;;
10126;SDS011;13080;42.608;23.362;2024-01-06T13:18:15;17.17;;;7.18;;
10126;SDS011;13080;42.608;23.362;2024-01-06T13:20:42;11.80;;;6.65;;
10126;SDS011;13080;42.608;23.362;2024-01-06T13:23:09;16.05;;;7.13;;
10126;SDS011;13080;42.608;23.362;2024-01-06T13:25:36;24.02;;;10.07;;
10126;SDS011;13080;42.608;23.362;2024-01-06T13:28:06;15.20;;;7.60;;
10126;SDS011;13080;42.608;23.362;2024-01-06T13:30:33;9.35;;;4.88;;
10126;SDS011;13080;42.608;23.362;2024-01-06T13:32:59;7.78;;;4.32;;
10126;SDS011;13080;42.608;23.362;2024-01-06T13:35:26;7.50;;;3.25;;
10126;SDS011;13080;42.608;23.362;2024-01-06T13:37:54;5.95;;;2.88;;
10126;SDS011;13080;42.608;23.362;2024-01-06T13:40:21;3.65;;;2.67;;
10126;SDS011;13080;42.608;23.362;2024-01-06T13:42:47;4.78;;;3.20;;
10126;SDS011;13080;42.608;23.362;2024-01-06T13:45:16;5.95;;;3.33;;
10126;SDS011;13080;42.608;23.362;2024-01-06T13:47:42;6.72;;;3.78;;
10126;SDS011;13080;42.608;23.362;2024-01-06T13:50:10;10.88;;;5.28;;
10126;SDS011;13080;42.608;23.362;2024-01-06T13:52:37;11.73;;;7.88;;
10126;SDS011;13080;42.608;23.362;2024-01-06T13:55:04;9.20;;;5.38;;
10126;SDS011;13080;42.608;23.362;2024-01-06T13:57:31;15.93;;;7.82;;
10126;SDS011;13080;42.608;23.362;2024-01-06T13:59:57;11.55;;;6.07;;
10126;SDS011;13080;42.608;23.362;2024-01-06T14:02:25;15.07;;;4.75;;
10126;SDS011;13080;42.608;23.362;2024-01-06T14:04:52;13.55;;;5.53;;
10126;SDS011;13080;42.608;23.362;2024-01-06T14:07:19;10.20;;;5.57;;
10126;SDS011;13080;42.608;23.362;2024-01-06T14:09:47;13.77;;;7.03;;
10126;SDS011;13080;42.608;23.362;2024-01-06T14:12:13;11.27;;;5.97;;
10126;SDS011;13080;42.608;23.362;2024-01-06T14:14:40;19.58;;;5.68;;
10126;SDS011;13080;42.608;23.362;2024-01-06T14:17:07;10.65;;;5.75;;
10126;SDS011;13080;42.608;23.362;2024-01-06T14:19:35;11.57;;;5.22;;
10126;SDS011;13080;42.608;23.362;2024-01-06T14:22:01;13.40;;;6.43;;
10126;SDS011;13080;42.608;23.362;2024-01-06T14:24:29;10.77;;;6.65;;
10126;SDS011;13080;42.608;23.362;2024-01-06T14:26:56;8.48;;;5.05;;
10126;SDS011;13080;42.608;23.362;2024-01-06T14:29:23;7.28;;;4.47;;
10126;SDS011;13080;42.608;23.362;2024-01-06T14:31:49;4.43;;;3.42;;
10126;SDS011;13080;42.608;23.362;2024-01-06T14:34:16;5.57;;;3.17;;